KARV/ARV METAR and TAF weather

Enter ICAO airport designator
Station Type Date Time Source
KARV METAR 2021/09/28 15:55 UTC NOAA

KARV 281555Z AUTO 20010KT 10SM CLR 16/09 A3003 RMK AO2 T01580085


Station Type Date Time Source
KARV Decoded METAR 2021/09/28 15:55 UTC NOAA

Minocqua/Woodruff, Lakeland Airport/Noble F. Lee Memorial Field, WI, United States (KARV) 45-56N 089-44W
Sep 28, 2021 - 11:55 AM EDT / 2021.09.28 1555 UTC
Wind: from the SSW (200 degrees) at 12 MPH (10 KT):0
Visibility: 10 mile(s):0
Sky conditions: clear
Temperature: 60.4 F (15.8 C)
Dew Point: 47.3 F (8.5 C)
Relative Humidity: 61%
Pressure (altimeter): 30.03 in. Hg (1016 hPa)
ob: KARV 281555Z AUTO 20010KT 10SM CLR 16/09 A3003 RMK AO2 T01580085
cycle: 16

Station Type Date Time Source
KARV TAF UTC NOAA

Error!

Example: see airport list